Onefour, Canada
Current Conditions -  °F | °C
As of 12:53 PM on Thursday 23 Oct 2014 (Local Time) from KHVR Reporting Station
Overcast Overcast  
Wind Chill: 61°   Ceiling: 10000
Heat Index: 61°   Visibility: 10mi
Dew Point: 39°   Wind: 12mph
Humidity: 44%   Direction: 230°SW
Pressure: 29.76"   Gusts: NA
Location:  49.07°N, 110.45°W
Report Text: KHVR 231853Z AUTO 23010KT 10SM FEW080 OVC100 16/04 A2976 RMK AO2 SLP077 T01610039
Loading
Personal Weather Stations






























Interactive Weather Map
Tropical Storm Tracking
New forecast layout! Learn more

10-Day Weather Forecast

Advertisements
Track Severe Weather on mobile